createdAt,value
2019-02-02T00:00:20.905Z,-1.77
2019-02-02T00:02:49.154Z,-1.70
2019-02-02T00:05:17.413Z,-1.71
2019-02-02T00:07:45.694Z,-1.66
2019-02-02T00:10:14.028Z,-1.76
2019-02-02T00:12:42.309Z,-1.81
2019-02-02T00:15:11.041Z,-1.76
2019-02-02T00:17:39.369Z,-1.70
2019-02-02T00:20:09.971Z,-1.72
2019-02-02T00:22:38.226Z,-1.83
2019-02-02T00:25:07.032Z,-1.82
2019-02-02T00:27:41.478Z,-1.80
2019-02-02T00:30:16.066Z,-1.72
2019-02-02T00:32:44.322Z,-1.75
2019-02-02T00:35:12.662Z,-1.86
2019-02-02T00:37:40.923Z,-1.82
2019-02-02T00:40:16.973Z,-1.89
2019-02-02T00:42:45.325Z,-1.89
2019-02-02T00:45:19.525Z,-1.99
2019-02-02T00:47:47.863Z,-2.07
2019-02-02T00:50:16.569Z,-2.03
2019-02-02T00:52:44.851Z,-2.01
2019-02-02T00:55:14.948Z,-2.01
2019-02-02T00:57:53.159Z,-1.94
2019-02-02T01:00:21.751Z,-1.91
2019-02-02T01:02:50.008Z,-1.84
2019-02-02T01:05:19.711Z,-1.88
2019-02-02T01:07:48.242Z,-1.88
2019-02-02T01:10:22.616Z,-1.77
2019-02-02T01:12:50.892Z,-1.69
2019-02-02T01:15:19.151Z,-1.69
2019-02-02T01:17:47.405Z,-1.72
2019-02-02T01:20:16.426Z,-1.76
2019-02-02T01:22:44.861Z,-1.70
2019-02-02T01:25:15.074Z,-1.68
2019-02-02T01:27:43.344Z,-1.78
2019-02-02T01:30:17.759Z,-1.88
2019-02-02T01:32:46.030Z,-1.96
2019-02-02T01:35:16.611Z,-2.00
2019-02-02T01:37:44.863Z,-2.02
2019-02-02T01:40:18.515Z,-1.98
2019-02-02T01:42:46.865Z,-1.91
2019-02-02T01:45:17.565Z,-1.84
2019-02-02T01:47:45.833Z,-1.95
2019-02-02T01:50:19.660Z,-2.10
2019-02-02T01:52:47.939Z,-2.10
2019-02-02T01:55:17.135Z,-2.09
2019-02-02T01:57:45.404Z,-2.11
2019-02-02T02:00:16.704Z,-2.15
2019-02-02T02:02:44.961Z,-2.09
2019-02-02T02:05:13.363Z,-2.10
2019-02-02T02:07:42.373Z,-2.17
2019-02-02T02:10:13.559Z,-2.26
2019-02-02T02:12:41.901Z,-2.32
2019-02-02T02:15:12.323Z,-2.30
2019-02-02T02:17:40.642Z,-2.29
2019-02-02T02:20:11.513Z,-2.23
2019-02-02T02:22:41.104Z,-2.19
2019-02-02T02:25:15.475Z,-2.21
2019-02-02T02:27:43.810Z,-2.13
2019-02-02T02:30:14.788Z,-2.05
2019-02-02T02:32:43.044Z,-2.00
2019-02-02T02:35:11.394Z,-1.97
2019-02-02T02:37:39.660Z,-1.90
2019-02-02T02:40:19.505Z,-2.00
2019-02-02T02:42:47.773Z,-2.03
2019-02-02T02:45:16.288Z,-2.10
2019-02-02T02:47:44.722Z,-2.09
2019-02-02T02:50:17.817Z,-2.09
2019-02-02T02:52:46.063Z,-2.09
2019-02-02T02:55:15.777Z,-2.02
2019-02-02T02:57:44.030Z,-2.01
2019-02-02T03:00:15.469Z,-1.96
2019-02-02T03:02:43.761Z,-1.97
2019-02-02T03:05:12.462Z,-1.90
2019-02-02T03:07:40.794Z,-1.93
2019-02-02T03:10:14.835Z,-1.99
2019-02-02T03:12:43.103Z,-1.99
2019-02-02T03:15:13.818Z,-2.00
2019-02-02T03:17:42.088Z,-1.97
2019-02-02T03:20:12.563Z,-1.92
2019-02-02T03:22:40.899Z,-1.95
2019-02-02T03:25:11.941Z,-1.90
2019-02-02T03:27:40.224Z,-1.90
2019-02-02T03:30:11.304Z,-1.89
2019-02-02T03:32:39.606Z,-1.81
2019-02-02T03:35:09.598Z,-1.81
2019-02-02T03:37:37.883Z,-1.81
2019-02-02T03:40:09.555Z,-1.88
2019-02-02T03:42:37.807Z,-1.92
2019-02-02T03:45:07.903Z,-1.93
2019-02-02T03:47:36.166Z,-1.94
2019-02-02T03:50:06.882Z,-1.92
2019-02-02T03:52:35.137Z,-2.06
2019-02-02T03:55:04.269Z,-2.02
2019-02-02T03:57:32.551Z,-2.00
2019-02-02T04:00:00.815Z,-2.05
2019-02-02T04:02:29.091Z,-1.99
2019-02-02T04:04:57.357Z,-1.94
2019-02-02T04:07:25.650Z,-1.92
2019-02-02T04:09:53.906Z,-1.96
2019-02-02T04:12:22.173Z,-1.91
2019-02-02T04:14:50.439Z,-1.93
2019-02-02T04:17:18.717Z,-1.91
2019-02-02T04:19:46.988Z,-1.93
2019-02-02T04:22:15.269Z,-1.83
2019-02-02T04:24:43.525Z,-1.79
2019-02-02T04:27:11.777Z,-1.77
2019-02-02T04:29:40.071Z,-1.77
2019-02-02T04:32:08.341Z,-1.78
2019-02-02T04:34:36.613Z,-1.82
2019-02-02T04:37:04.881Z,-1.89
2019-02-02T04:39:33.161Z,-1.95
2019-02-02T04:42:01.447Z,-1.95
2019-02-02T04:44:29.722Z,-2.01
2019-02-02T04:46:58.000Z,-2.02
2019-02-02T04:49:26.257Z,-1.98
2019-02-02T04:51:54.531Z,-1.96
2019-02-02T04:54:22.811Z,-2.00
2019-02-02T04:56:51.128Z,-1.98
2019-02-02T04:59:29.027Z,-1.97
2019-02-02T05:01:49.520Z,-1.96
2019-02-02T05:04:17.780Z,-1.95
2019-02-02T05:06:46.050Z,-1.93
2019-02-02T05:09:14.325Z,-1.93
2019-02-02T05:11:42.614Z,-1.97
2019-02-02T05:14:10.875Z,-1.98
2019-02-02T05:16:39.152Z,-1.98
2019-02-02T05:19:07.433Z,-1.96
2019-02-02T05:21:35.729Z,-1.94
2019-02-02T05:24:04.029Z,-1.90
2019-02-02T05:26:32.305Z,-1.87
2019-02-02T05:29:00.575Z,-1.84
2019-02-02T05:31:28.883Z,-1.81
2019-02-02T05:33:57.161Z,-1.79
2019-02-02T05:36:25.428Z,-1.75
2019-02-02T05:38:53.785Z,-1.69
2019-02-02T05:41:22.070Z,-1.69
2019-02-02T05:43:50.338Z,-1.63
2019-02-02T05:46:18.604Z,-1.65
2019-02-02T05:48:46.875Z,-1.64
2019-02-02T05:51:15.135Z,-1.59
2019-02-02T05:53:43.417Z,-1.61
2019-02-02T05:56:11.762Z,-1.57
2019-02-02T05:58:40.021Z,-1.57
2019-02-02T06:01:09.928Z,-1.58
2019-02-02T06:03:39.090Z,-1.57
2019-02-02T06:06:07.360Z,-1.56
2019-02-02T06:08:35.625Z,-1.57
2019-02-02T06:11:03.895Z,-1.67
2019-02-02T06:13:32.203Z,-1.65
2019-02-02T06:16:00.444Z,-1.60
2019-02-02T06:18:28.719Z,-1.54
2019-02-02T06:20:56.989Z,-1.54
2019-02-02T06:23:25.264Z,-1.46
2019-02-02T06:25:53.535Z,-1.45
2019-02-02T06:28:21.788Z,-1.44
2019-02-02T06:30:50.067Z,-1.42
2019-02-02T06:33:18.334Z,-1.37
2019-02-02T06:35:46.595Z,-1.32
2019-02-02T06:38:14.851Z,-1.26
2019-02-02T06:40:43.141Z,-1.19
2019-02-02T06:43:11.402Z,-1.22
2019-02-02T06:45:39.688Z,-1.14
2019-02-02T06:48:07.955Z,-1.13
2019-02-02T06:50:36.224Z,-1.15
2019-02-02T06:53:05.508Z,-1.17
2019-02-02T06:55:33.779Z,-1.07
2019-02-02T06:58:02.054Z,-1.06
2019-02-02T07:00:31.002Z,-0.99
2019-02-02T07:02:59.368Z,-1.08
2019-02-02T07:05:27.649Z,-1.05
2019-02-02T07:07:56.108Z,-1.02
2019-02-02T07:10:26.832Z,-0.96
2019-02-02T07:12:55.172Z,-0.97
2019-02-02T07:15:25.596Z,-1.00
2019-02-02T07:17:53.876Z,-1.03
2019-02-02T07:20:22.141Z,-1.02
2019-02-02T07:22:50.417Z,-1.03
2019-02-02T07:25:18.695Z,-0.91
2019-02-02T07:27:46.966Z,-0.86
2019-02-02T07:30:28.433Z,-0.84
2019-02-02T07:32:48.018Z,-0.82
2019-02-02T07:35:16.356Z,-0.74
2019-02-02T07:37:44.652Z,-0.79
2019-02-02T07:40:15.174Z,-0.80
2019-02-02T07:42:43.521Z,-0.74
2019-02-02T07:45:19.845Z,-0.76
2019-02-02T07:47:48.125Z,-0.65
2019-02-02T07:50:17.126Z,-0.65
2019-02-02T07:52:45.482Z,-0.52
2019-02-02T07:55:21.039Z,-0.41
2019-02-02T07:57:49.563Z,-0.36
2019-02-02T08:00:20.775Z,-0.33
2019-02-02T08:02:49.042Z,-0.24
2019-02-02T08:05:17.392Z,-0.29
2019-02-02T08:07:45.656Z,-0.28
2019-02-02T08:10:14.294Z,-0.23
2019-02-02T08:12:42.917Z,-0.15
2019-02-02T08:15:14.209Z,-0.13
2019-02-02T08:17:42.524Z,-0.10
2019-02-02T08:20:12.820Z,-0.24
2019-02-02T08:22:41.134Z,-0.19
2019-02-02T08:25:14.390Z,-0.23
2019-02-02T08:27:42.732Z,-0.26
2019-02-02T08:30:22.053Z,-0.25
2019-02-02T08:32:50.321Z,-0.22
2019-02-02T08:35:18.666Z,-0.15
2019-02-02T08:37:46.943Z,-0.08
2019-02-02T08:40:17.047Z,-0.03
2019-02-02T08:42:45.329Z,0.01
2019-02-02T08:45:14.744Z,0.00
2019-02-02T08:47:43.001Z,-0.01
2019-02-02T08:50:19.675Z,0.13
2019-02-02T08:52:47.985Z,0.10
2019-02-02T08:55:16.224Z,0.20
2019-02-02T08:57:44.504Z,0.18
2019-02-02T09:00:17.844Z,0.18
2019-02-02T09:02:46.142Z,0.19
2019-02-02T09:05:17.082Z,0.23
2019-02-02T09:07:45.301Z,0.22
2019-02-02T09:10:16.005Z,0.34
2019-02-02T09:12:44.282Z,0.37
2019-02-02T09:15:14.882Z,0.37
2019-02-02T09:17:43.165Z,0.40
2019-02-02T09:20:12.856Z,0.57
2019-02-02T09:22:41.201Z,0.61
2019-02-02T09:25:11.701Z,0.73
2019-02-02T09:27:39.974Z,0.71
2019-02-02T09:30:15.468Z,0.71
2019-02-02T09:32:43.776Z,0.86
2019-02-02T09:35:12.047Z,0.86
2019-02-02T09:37:40.325Z,0.97
2019-02-02T09:40:14.455Z,1.06
2019-02-02T09:42:42.799Z,1.15
2019-02-02T09:45:17.140Z,1.19
2019-02-02T09:47:45.404Z,1.19
2019-02-02T09:50:16.683Z,1.12
2019-02-02T09:52:44.934Z,1.07
2019-02-02T09:55:15.342Z,1.19
2019-02-02T09:57:43.600Z,1.21
2019-02-02T10:00:20.867Z,1.17
2019-02-02T10:02:49.280Z,1.12
2019-02-02T10:05:19.176Z,1.18
2019-02-02T10:07:47.809Z,1.18
2019-02-02T10:10:18.224Z,1.16
2019-02-02T10:12:46.497Z,1.16
2019-02-02T10:15:15.804Z,1.19
2019-02-02T10:17:44.081Z,1.24
2019-02-02T10:20:17.256Z,1.27
2019-02-02T10:22:45.611Z,1.36
2019-02-02T10:25:19.223Z,1.39
2019-02-02T10:27:47.499Z,1.45
2019-02-02T10:30:22.701Z,1.46
2019-02-02T10:32:50.812Z,1.47
2019-02-02T10:35:19.085Z,1.56
2019-02-02T10:37:47.367Z,1.57
2019-02-02T10:40:16.200Z,1.61
2019-02-02T10:42:44.497Z,1.53
2019-02-02T10:45:17.146Z,1.55
2019-02-02T10:47:45.645Z,1.43
2019-02-02T10:50:16.465Z,1.46
2019-02-02T10:52:44.905Z,1.47
2019-02-02T10:55:14.838Z,1.46
2019-02-02T10:57:43.172Z,1.36
2019-02-02T11:00:20.367Z,1.35
2019-02-02T11:02:48.654Z,1.48
2019-02-02T11:05:17.025Z,1.36
2019-02-02T11:07:45.304Z,1.44
2019-02-02T11:10:18.943Z,1.47
2019-02-02T11:12:47.486Z,1.44
2019-02-02T11:15:17.584Z,1.53
2019-02-02T11:17:45.989Z,1.56
2019-02-02T11:20:17.663Z,1.58
2019-02-02T11:22:46.534Z,1.67
2019-02-02T11:25:15.182Z,1.77
2019-02-02T11:27:43.447Z,1.83
2019-02-02T11:30:14.808Z,1.88
2019-02-02T11:32:43.140Z,1.82
2019-02-02T11:35:13.453Z,1.89
2019-02-02T11:37:41.763Z,1.89
2019-02-02T11:40:13.204Z,1.87
2019-02-02T11:42:41.510Z,1.80
2019-02-02T11:45:11.914Z,1.84
2019-02-02T11:47:40.198Z,1.74
2019-02-02T11:50:16.661Z,1.70
2019-02-02T11:52:44.917Z,1.71
2019-02-02T11:55:15.228Z,1.76
2019-02-02T11:57:43.477Z,1.76
2019-02-02T12:00:16.420Z,1.70
2019-02-02T12:02:49.373Z,1.71
2019-02-02T12:05:15.116Z,1.72
2019-02-02T12:07:43.420Z,1.72
2019-02-02T12:10:17.100Z,1.84
2019-02-02T12:12:45.401Z,1.91
2019-02-02T12:15:15.676Z,1.90
2019-02-02T12:17:43.947Z,1.97
2019-02-02T12:20:14.812Z,2.05
2019-02-02T12:22:43.113Z,1.97
2019-02-02T12:25:11.600Z,1.99
2019-02-02T12:27:39.918Z,2.02
2019-02-02T12:30:17.201Z,2.07
2019-02-02T12:32:46.554Z,2.20
2019-02-02T12:35:21.748Z,2.17
2019-02-02T12:37:52.724Z,2.22
2019-02-02T12:40:22.800Z,2.14
2019-02-02T12:42:52.820Z,2.14
2019-02-02T12:45:26.138Z,2.17
2019-02-02T12:47:54.707Z,2.19
2019-02-02T12:50:22.979Z,2.18
2019-02-02T12:52:51.244Z,2.20
2019-02-02T12:55:19.552Z,2.26
2019-02-02T12:57:47.830Z,2.21
2019-02-02T13:00:22.092Z,2.25
2019-02-02T13:02:50.377Z,2.14
2019-02-02T13:05:21.343Z,2.14
2019-02-02T13:07:49.694Z,2.14
2019-02-02T13:10:24.687Z,2.17
2019-02-02T13:12:53.265Z,2.12
2019-02-02T13:15:21.582Z,2.14
2019-02-02T13:17:49.830Z,2.12
2019-02-02T13:20:18.483Z,2.07
2019-02-02T13:22:46.742Z,2.11
2019-02-02T13:25:20.433Z,2.16
2019-02-02T13:27:48.709Z,2.18
2019-02-02T13:30:22.403Z,2.21
2019-02-02T13:32:50.677Z,2.19
2019-02-02T13:35:19.693Z,2.22
2019-02-02T13:37:47.997Z,2.08
2019-02-02T13:40:21.344Z,2.10
2019-02-02T13:42:49.705Z,2.04
2019-02-02T13:45:22.060Z,2.08
2019-02-02T13:47:53.743Z,2.08
2019-02-02T13:50:22.060Z,2.02
2019-02-02T13:52:51.930Z,1.99
2019-02-02T13:55:20.275Z,2.00
2019-02-02T13:57:48.637Z,1.99
2019-02-02T14:00:19.641Z,2.06
2019-02-02T14:02:48.009Z,1.96
2019-02-02T14:05:17.487Z,1.95
2019-02-02T14:07:45.862Z,1.95
2019-02-02T14:10:17.399Z,1.96
2019-02-02T14:12:45.736Z,1.98
2019-02-02T14:15:14.888Z,1.95
2019-02-02T14:17:43.191Z,1.96
2019-02-02T14:20:13.463Z,2.02
2019-02-02T14:22:41.955Z,2.05
2019-02-02T14:25:13.919Z,2.10
2019-02-02T14:27:42.235Z,2.01
2019-02-02T14:30:13.355Z,1.96
2019-02-02T14:32:41.657Z,1.94
2019-02-02T14:35:12.562Z,1.94
2019-02-02T14:37:40.846Z,1.87
2019-02-02T14:40:11.779Z,1.93
2019-02-02T14:42:40.144Z,1.92
2019-02-02T14:45:14.719Z,1.91
2019-02-02T14:47:43.036Z,1.92
2019-02-02T14:50:14.224Z,1.93
2019-02-02T14:52:46.084Z,1.85
2019-02-02T14:55:19.857Z,1.90
2019-02-02T14:57:48.486Z,1.89
2019-02-02T15:00:19.753Z,1.92
2019-02-02T15:02:48.613Z,1.93
2019-02-02T15:05:19.061Z,1.84
2019-02-02T15:07:47.369Z,1.82
2019-02-02T15:10:16.075Z,1.79
2019-02-02T15:12:44.462Z,1.84
2019-02-02T15:15:16.544Z,1.71
2019-02-02T15:17:45.056Z,1.72
2019-02-02T15:20:22.060Z,1.69
2019-02-02T15:22:49.217Z,1.54
2019-02-02T15:25:17.543Z,1.56
2019-02-02T15:27:48.497Z,1.56
2019-02-02T15:30:25.519Z,1.51
2019-02-02T15:32:53.912Z,1.51
2019-02-02T15:35:22.473Z,1.48
2019-02-02T15:37:50.774Z,1.53
2019-02-02T15:40:19.448Z,1.55
2019-02-02T15:42:47.832Z,1.55
2019-02-02T15:45:24.516Z,1.59
2019-02-02T15:47:54.368Z,1.59
2019-02-02T15:50:22.671Z,1.54
2019-02-02T15:52:51.515Z,1.61
2019-02-02T15:55:22.198Z,1.52
2019-02-02T15:57:50.667Z,1.63
2019-02-02T16:00:22.154Z,1.55
2019-02-02T16:02:52.502Z,1.56
2019-02-02T16:05:21.344Z,1.60
2019-02-02T16:07:49.716Z,1.58
2019-02-02T16:10:21.012Z,1.51
2019-02-02T16:12:49.448Z,1.47
2019-02-02T16:15:17.792Z,1.44
2019-02-02T16:17:46.169Z,1.43
2019-02-02T16:20:17.768Z,1.43
2019-02-02T16:22:46.172Z,1.37
2019-02-02T16:25:14.551Z,1.48
2019-02-02T16:27:42.977Z,1.43
2019-02-02T16:30:16.757Z,1.41
2019-02-02T16:32:45.119Z,1.39
2019-02-02T16:35:13.498Z,1.36
2019-02-02T16:37:41.784Z,1.37
2019-02-02T16:40:15.630Z,1.38
2019-02-02T16:42:43.937Z,1.39
2019-02-02T16:45:14.785Z,1.44
2019-02-02T16:47:43.235Z,1.38
2019-02-02T16:50:13.938Z,1.30
2019-02-02T16:52:42.219Z,1.33
2019-02-02T16:55:12.650Z,1.32
2019-02-02T16:57:41.024Z,1.27
2019-02-02T17:00:17.512Z,1.30
2019-02-02T17:02:45.875Z,1.32
2019-02-02T17:05:14.177Z,1.35
2019-02-02T17:07:46.135Z,1.31
2019-02-02T17:10:18.814Z,1.30
2019-02-02T17:12:47.102Z,1.39
2019-02-02T17:15:16.015Z,1.30
2019-02-02T17:17:44.592Z,1.32
2019-02-02T17:20:15.474Z,1.40
2019-02-02T17:22:43.763Z,1.35
2019-02-02T17:25:16.234Z,1.32
2019-02-02T17:27:46.383Z,1.44
2019-02-02T17:30:20.545Z,1.35
2019-02-02T17:32:50.647Z,1.27
2019-02-02T17:35:18.980Z,1.31
2019-02-02T17:37:47.352Z,1.24
2019-02-02T17:40:20.708Z,1.26
2019-02-02T17:42:49.068Z,1.17
2019-02-02T17:45:19.690Z,1.19
2019-02-02T17:47:49.648Z,1.23
2019-02-02T17:50:28.561Z,1.31
2019-02-02T17:52:56.991Z,1.26
2019-02-02T17:55:25.355Z,1.23
2019-02-02T17:57:53.866Z,1.19
2019-02-02T18:00:26.483Z,1.24
2019-02-02T18:02:54.782Z,1.28
2019-02-02T18:05:23.684Z,1.28
2019-02-02T18:07:51.974Z,1.29
2019-02-02T18:10:20.264Z,1.39
2019-02-02T18:12:48.548Z,1.30
2019-02-02T18:15:17.118Z,1.31
2019-02-02T18:17:45.386Z,1.34
2019-02-02T18:20:18.061Z,1.39
2019-02-02T18:22:46.361Z,1.23
2019-02-02T18:25:15.967Z,1.28
2019-02-02T18:27:44.248Z,1.32
2019-02-02T18:30:18.118Z,1.32
2019-02-02T18:32:46.477Z,1.37
2019-02-02T18:35:17.656Z,1.31
2019-02-02T18:37:48.179Z,1.17
2019-02-02T18:40:21.851Z,1.17
2019-02-02T18:42:55.855Z,1.22
2019-02-02T18:45:26.968Z,1.15
2019-02-02T18:47:55.350Z,1.15
2019-02-02T18:50:23.868Z,1.09
2019-02-02T18:52:54.580Z,1.19
2019-02-02T18:55:25.886Z,1.03
2019-02-02T18:57:54.270Z,1.13
2019-02-02T19:00:22.995Z,1.17
2019-02-02T19:02:51.278Z,1.26
2019-02-02T19:05:21.281Z,1.22
2019-02-02T19:07:50.631Z,1.23
2019-02-02T19:10:27.893Z,1.23
2019-02-02T19:12:56.102Z,1.25
2019-02-02T19:15:24.439Z,1.21
2019-02-02T19:17:52.801Z,1.13
2019-02-02T19:20:22.143Z,1.18
2019-02-02T19:22:50.438Z,1.20
2019-02-02T19:25:18.809Z,1.17
2019-02-02T19:27:47.118Z,1.17
2019-02-02T19:30:20.718Z,1.15
2019-02-02T19:32:50.658Z,1.08
2019-02-02T19:35:20.287Z,1.19
2019-02-02T19:37:48.562Z,1.16
2019-02-02T19:40:17.329Z,1.19
2019-02-02T19:42:45.685Z,1.23
2019-02-02T19:45:16.830Z,1.29
2019-02-02T19:47:46.206Z,1.36
2019-02-02T19:50:17.462Z,1.27
2019-02-02T19:52:46.793Z,1.41
2019-02-02T19:55:15.359Z,1.28
2019-02-02T19:57:43.673Z,1.16
2019-02-02T20:00:14.974Z,1.14
2019-02-02T20:02:43.973Z,1.23
2019-02-02T20:05:12.399Z,1.13
2019-02-02T20:07:40.982Z,1.19
2019-02-02T20:10:12.802Z,1.28
2019-02-02T20:12:42.745Z,1.32
2019-02-02T20:15:16.979Z,1.20
2019-02-02T20:17:45.939Z,1.12
2019-02-02T20:20:17.707Z,1.20
2019-02-02T20:22:46.133Z,1.13
2019-02-02T20:25:16.594Z,1.09
2019-02-02T20:27:49.180Z,1.09
2019-02-02T20:30:28.651Z,0.95
2019-02-02T20:32:57.194Z,0.91
2019-02-02T20:35:25.483Z,0.95
2019-02-02T20:37:53.832Z,0.95
2019-02-02T20:40:28.590Z,1.00
2019-02-02T20:42:58.160Z,0.97
2019-02-02T20:45:30.060Z,1.06
2019-02-02T20:47:58.342Z,0.95
2019-02-02T20:50:28.980Z,0.95
2019-02-02T20:52:57.284Z,1.00
2019-02-02T20:55:32.059Z,1.13
2019-02-02T20:58:01.827Z,1.14
2019-02-02T21:00:31.107Z,1.07
2019-02-02T21:02:59.595Z,1.09
2019-02-02T21:05:27.938Z,1.19
2019-02-02T21:07:58.038Z,1.23
2019-02-02T21:10:26.528Z,1.12
2019-02-02T21:12:55.121Z,1.01
2019-02-02T21:15:23.644Z,1.10
2019-02-02T21:17:52.110Z,1.14
2019-02-02T21:20:29.898Z,1.14
2019-02-02T21:22:58.264Z,1.16
2019-02-02T21:25:26.760Z,1.14
2019-02-02T21:27:55.071Z,1.08
2019-02-02T21:30:25.998Z,1.21
2019-02-02T21:32:54.631Z,1.24
2019-02-02T21:35:23.384Z,1.31
2019-02-02T21:37:51.788Z,1.26
2019-02-02T21:40:26.164Z,1.22
2019-02-02T21:42:54.574Z,1.22
2019-02-02T21:45:22.836Z,1.22
2019-02-02T21:47:51.584Z,1.17
2019-02-02T21:50:24.560Z,1.14
2019-02-02T21:52:53.126Z,1.08
2019-02-02T21:55:23.453Z,1.21
2019-02-02T21:57:51.826Z,1.12
2019-02-02T22:00:22.837Z,1.19
2019-02-02T22:02:51.418Z,1.19
2019-02-02T22:05:22.424Z,1.04
2019-02-02T22:07:50.738Z,1.19
2019-02-02T22:10:19.399Z,1.18
2019-02-02T22:12:47.707Z,1.25
2019-02-02T22:15:21.423Z,1.23
2019-02-02T22:17:49.766Z,1.13
2019-02-02T22:20:18.868Z,1.16
2019-02-02T22:22:47.157Z,1.29
2019-02-02T22:25:24.481Z,1.18
2019-02-02T22:27:52.793Z,1.19
2019-02-02T22:30:23.705Z,1.17
2019-02-02T22:32:51.966Z,1.22
2019-02-02T22:35:24.920Z,1.39
2019-02-02T22:37:53.304Z,1.47
2019-02-02T22:40:24.274Z,1.47
2019-02-02T22:42:53.243Z,1.42
2019-02-02T22:45:21.998Z,1.41
2019-02-02T22:47:50.936Z,1.31
2019-02-02T22:50:26.686Z,1.27
2019-02-02T22:52:56.596Z,1.19
2019-02-02T22:55:25.339Z,1.04
2019-02-02T22:57:54.068Z,1.09
2019-02-02T23:00:56.603Z,1.07
2019-02-02T23:03:31.220Z,1.08
2019-02-02T23:06:17.265Z,1.09
2019-02-02T23:08:54.757Z,1.06
2019-02-02T23:11:35.762Z,1.20
2019-02-02T23:14:27.652Z,1.28
2019-02-02T23:16:55.917Z,1.33
2019-02-02T23:19:24.488Z,1.12
2019-02-02T23:21:52.799Z,1.08
2019-02-02T23:24:21.130Z,1.06
2019-02-02T23:26:49.763Z,1.04
2019-02-02T23:29:18.093Z,1.21
2019-02-02T23:31:46.445Z,1.21
2019-02-02T23:34:14.713Z,1.12
2019-02-02T23:36:51.099Z,1.16
2019-02-02T23:39:13.038Z,1.25
2019-02-02T23:41:41.606Z,1.25
2019-02-02T23:44:13.046Z,1.26
2019-02-02T23:46:41.325Z,1.20
2019-02-02T23:49:10.299Z,1.12
2019-02-02T23:51:38.768Z,1.06
2019-02-02T23:54:07.752Z,1.04
2019-02-02T23:56:40.975Z,1.04
2019-02-02T23:59:09.252Z,1.07
